sensor_id;sensor_type;location;lat;lon;timestamp;pressure;altitude;pressure_sealevel;temperature;humidity
73692;BME280;61996;49.910;35.562;2024-02-15T00:00:58;99745.44;;;20.50;41.84
73692;BME280;61996;49.910;35.562;2024-02-15T00:04:01;99755.59;;;20.46;42.15
73692;BME280;61996;49.910;35.562;2024-02-15T00:07:05;99751.34;;;20.44;42.16
73692;BME280;61996;49.910;35.562;2024-02-15T00:10:09;99742.94;;;20.39;41.84
73692;BME280;61996;49.910;35.562;2024-02-15T00:13:12;99752.38;;;20.33;41.80
73692;BME280;61996;49.910;35.562;2024-02-15T00:16:15;99752.53;;;20.32;42.35
73692;BME280;61996;49.910;35.562;2024-02-15T00:19:18;99748.03;;;20.22;42.40
73692;BME280;61996;49.910;35.562;2024-02-15T00:22:22;99763.94;;;20.24;42.41
73692;BME280;61996;49.910;35.562;2024-02-15T00:25:25;99768.03;;;20.18;42.13
73692;BME280;61996;49.910;35.562;2024-02-15T00:28:28;99757.91;;;20.12;41.87
73692;BME280;61996;49.910;35.562;2024-02-15T00:31:31;99758.91;;;20.11;42.35
73692;BME280;61996;49.910;35.562;2024-02-15T00:34:34;99766.50;;;20.06;42.11
73692;BME280;61996;49.910;35.562;2024-02-15T00:37:39;99754.66;;;20.09;42.23
73692;BME280;61996;49.910;35.562;2024-02-15T00:40:43;99754.81;;;20.07;42.22
73692;BME280;61996;49.910;35.562;2024-02-15T00:43:47;99760.47;;;20.04;42.05
73692;BME280;61996;49.910;35.562;2024-02-15T00:46:50;99758.06;;;20.01;41.93
73692;BME280;61996;49.910;35.562;2024-02-15T00:49:53;99769.19;;;19.96;42.05
73692;BME280;61996;49.910;35.562;2024-02-15T00:52:57;99760.47;;;19.94;42.14
73692;BME280;61996;49.910;35.562;2024-02-15T00:56:00;99763.00;;;19.96;42.02
73692;BME280;61996;49.910;35.562;2024-02-15T00:59:03;99764.25;;;19.92;42.08
73692;BME280;61996;49.910;35.562;2024-02-15T01:02:06;99773.25;;;19.91;41.98
73692;BME280;61996;49.910;35.562;2024-02-15T01:05:09;99763.69;;;19.88;42.19
73692;BME280;61996;49.910;35.562;2024-02-15T01:08:14;99774.66;;;19.85;42.09
73692;BME280;61996;49.910;35.562;2024-02-15T01:11:17;99773.41;;;19.80;42.28
73692;BME280;61996;49.910;35.562;2024-02-15T01:14:20;99779.44;;;19.82;42.17
73692;BME280;61996;49.910;35.562;2024-02-15T01:17:23;99787.03;;;19.77;42.23
73692;BME280;61996;49.910;35.562;2024-02-15T01:20:26;99780.13;;;19.74;42.35
73692;BME280;61996;49.910;35.562;2024-02-15T01:23:30;99783.25;;;19.69;42.42
73692;BME280;61996;49.910;35.562;2024-02-15T01:26:34;99783.09;;;19.71;42.20
73692;BME280;61996;49.910;35.562;2024-02-15T01:29:37;99801.19;;;19.67;42.17
73692;BME280;61996;49.910;35.562;2024-02-15T01:32:40;99794.47;;;19.63;42.33
73692;BME280;61996;49.910;35.562;2024-02-15T01:35:44;99793.50;;;19.64;42.21
73692;BME280;61996;49.910;35.562;2024-02-15T01:38:48;99804.47;;;19.61;42.36
73692;BME280;61996;49.910;35.562;2024-02-15T01:41:51;99799.38;;;19.58;42.49
73692;BME280;61996;49.910;35.562;2024-02-15T01:44:57;99800.22;;;19.59;42.43
73692;BME280;61996;49.910;35.562;2024-02-15T01:48:01;99801.31;;;19.56;42.43
73692;BME280;61996;49.910;35.562;2024-02-15T01:51:06;99796.97;;;19.55;42.45
73692;BME280;61996;49.910;35.562;2024-02-15T01:54:11;99795.56;;;19.51;42.35
73692;BME280;61996;49.910;35.562;2024-02-15T01:57:15;99795.84;;;19.48;42.43
73692;BME280;61996;49.910;35.562;2024-02-15T02:00:19;99809.59;;;19.53;42.32
73692;BME280;61996;49.910;35.562;2024-02-15T02:03:22;99802.88;;;19.49;42.49
73692;BME280;61996;49.910;35.562;2024-02-15T02:06:25;99797.78;;;19.46;42.49
73692;BME280;61996;49.910;35.562;2024-02-15T02:09:29;99804.94;;;19.45;42.63
73692;BME280;61996;49.910;35.562;2024-02-15T02:12:33;99803.41;;;19.43;42.46
73692;BME280;61996;49.910;35.562;2024-02-15T02:15:36;99811.66;;;19.40;42.73
73692;BME280;61996;49.910;35.562;2024-02-15T02:18:39;99816.16;;;19.39;42.70
73692;BME280;61996;49.910;35.562;2024-02-15T02:21:43;99815.75;;;19.44;42.57
73692;BME280;61996;49.910;35.562;2024-02-15T02:24:56;99811.41;;;19.43;42.32
73692;BME280;61996;49.910;35.562;2024-02-15T02:28:00;99819.66;;;19.40;42.67
73692;BME280;61996;49.910;35.562;2024-02-15T02:31:03;99816.59;;;19.35;42.55
73692;BME280;61996;49.910;35.562;2024-02-15T02:34:07;99818.53;;;19.33;42.60
73692;BME280;61996;49.910;35.562;2024-02-15T02:37:12;99822.19;;;19.32;42.49
73692;BME280;61996;49.910;35.562;2024-02-15T02:40:17;99829.22;;;19.33;42.65
73692;BME280;61996;49.910;35.562;2024-02-15T02:43:20;99830.47;;;19.29;42.62
73692;BME280;61996;49.910;35.562;2024-02-15T02:46:22;99837.50;;;19.30;42.57
73692;BME280;61996;49.910;35.562;2024-02-15T02:49:26;99835.13;;;19.27;42.64
73692;BME280;61996;49.910;35.562;2024-02-15T02:52:29;99833.53;;;19.24;42.59
73692;BME280;61996;49.910;35.562;2024-02-15T02:55:33;99828.50;;;19.21;42.61
73692;BME280;61996;49.910;35.562;2024-02-15T02:58:36;99833.00;;;19.21;42.69
73692;BME280;61996;49.910;35.562;2024-02-15T03:01:39;99831.16;;;19.21;42.60
73692;BME280;61996;49.910;35.562;2024-02-15T03:04:43;99837.47;;;19.20;42.62
73692;BME280;61996;49.910;35.562;2024-02-15T03:07:46;99836.75;;;19.18;42.59
73692;BME280;61996;49.910;35.562;2024-02-15T03:10:50;99837.72;;;19.17;42.79
73692;BME280;61996;49.910;35.562;2024-02-15T03:13:53;99841.38;;;19.16;42.57
73692;BME280;61996;49.910;35.562;2024-02-15T03:16:56;99845.88;;;19.15;42.65
73692;BME280;61996;49.910;35.562;2024-02-15T03:19:59;99846.03;;;19.14;42.55
73692;BME280;61996;49.910;35.562;2024-02-15T03:23:02;99847.94;;;19.12;42.58
73692;BME280;61996;49.910;35.562;2024-02-15T03:26:08;99849.66;;;19.13;42.60
73692;BME280;61996;49.910;35.562;2024-02-15T03:29:12;99849.78;;;19.11;42.60
73692;BME280;61996;49.910;35.562;2024-02-15T03:32:15;99850.91;;;19.09;42.64
73692;BME280;61996;49.910;35.562;2024-02-15T03:35:18;99850.06;;;19.08;42.51
73692;BME280;61996;49.910;35.562;2024-02-15T03:38:22;99858.06;;;19.08;42.52
73692;BME280;61996;49.910;35.562;2024-02-15T03:41:28;99864.38;;;19.07;42.58
73692;BME280;61996;49.910;35.562;2024-02-15T03:44:34;99862.84;;;19.14;42.51
73692;BME280;61996;49.910;35.562;2024-02-15T03:47:37;99871.19;;;19.31;42.20
73692;BME280;61996;49.910;35.562;2024-02-15T03:50:40;99873.69;;;19.32;41.89
73692;BME280;61996;49.910;35.562;2024-02-15T03:53:43;99874.97;;;19.38;41.78
73692;BME280;61996;49.910;35.562;2024-02-15T03:56:48;99874.28;;;19.45;41.58
73692;BME280;61996;49.910;35.562;2024-02-15T03:59:54;99888.69;;;19.64;41.35
73692;BME280;61996;49.910;35.562;2024-02-15T04:02:58;99882.13;;;19.68;40.99
73692;BME280;61996;49.910;35.562;2024-02-15T04:06:02;99881.41;;;19.76;41.25
73692;BME280;61996;49.910;35.562;2024-02-15T04:09:06;99887.16;;;19.81;41.04
73692;BME280;61996;49.910;35.562;2024-02-15T04:12:10;99884.66;;;19.89;40.82
73692;BME280;61996;49.910;35.562;2024-02-15T04:15:13;99892.09;;;19.95;40.78
73692;BME280;61996;49.910;35.562;2024-02-15T04:18:19;99889.72;;;20.02;40.77
73692;BME280;61996;49.910;35.562;2024-02-15T04:21:23;99887.47;;;19.97;40.87
73692;BME280;61996;49.910;35.562;2024-02-15T04:24:28;99893.50;;;19.99;40.89
73692;BME280;61996;49.910;35.562;2024-02-15T04:27:32;99895.88;;;20.02;40.94
73692;BME280;61996;49.910;35.562;2024-02-15T04:30:35;99901.09;;;19.94;40.99
73692;BME280;61996;49.910;35.562;2024-02-15T04:33:41;99901.09;;;19.94;40.97
73692;BME280;61996;49.910;35.562;2024-02-15T04:36:45;99896.31;;;19.88;41.28
73692;BME280;61996;49.910;35.562;2024-02-15T04:39:51;99912.75;;;19.83;41.20
73692;BME280;61996;49.910;35.562;2024-02-15T04:42:55;99917.38;;;19.81;41.08
73692;BME280;61996;49.910;35.562;2024-02-15T04:46:00;99914.41;;;19.75;41.16
73692;BME280;61996;49.910;35.562;2024-02-15T04:49:03;99915.28;;;19.75;41.43
73692;BME280;61996;49.910;35.562;2024-02-15T04:52:07;99909.78;;;19.77;41.42
73692;BME280;61996;49.910;35.562;2024-02-15T04:55:11;99924.97;;;19.76;41.48
73692;BME280;61996;49.910;35.562;2024-02-15T04:58:15;99928.19;;;19.70;41.40
73692;BME280;61996;49.910;35.562;2024-02-15T05:01:19;99921.56;;;19.64;41.28
73692;BME280;61996;49.910;35.562;2024-02-15T05:04:22;99931.03;;;19.48;41.58
73692;BME280;61996;49.910;35.562;2024-02-15T05:07:26;99936.19;;;19.39;41.75
73692;BME280;61996;49.910;35.562;2024-02-15T05:10:29;99931.97;;;19.37;41.77
73692;BME280;61996;49.910;35.562;2024-02-15T05:13:33;99929.84;;;19.31;41.94
73692;BME280;61996;49.910;35.562;2024-02-15T05:16:36;99935.59;;;19.26;41.89
73692;BME280;61996;49.910;35.562;2024-02-15T05:19:43;99952.81;;;19.22;42.13
73692;BME280;61996;49.910;35.562;2024-02-15T05:22:46;99946.66;;;19.22;42.13
73692;BME280;61996;49.910;35.562;2024-02-15T05:25:51;99954.50;;;19.23;42.09
73692;BME280;61996;49.910;35.562;2024-02-15T05:28:57;99963.03;;;19.17;42.09
73692;BME280;61996;49.910;35.562;2024-02-15T05:32:00;99952.66;;;19.14;42.04
73692;BME280;61996;49.910;35.562;2024-02-15T05:35:03;99948.31;;;19.13;42.01
73692;BME280;61996;49.910;35.562;2024-02-15T05:38:06;99945.75;;;19.11;42.06
73692;BME280;61996;49.910;35.562;2024-02-15T05:41:09;99952.19;;;19.09;42.04
73692;BME280;61996;49.910;35.562;2024-02-15T05:44:14;99951.50;;;19.07;42.15
73692;BME280;61996;49.910;35.562;2024-02-15T05:47:19;99958.75;;;19.05;42.21
73692;BME280;61996;49.910;35.562;2024-02-15T05:50:22;99958.91;;;19.03;42.26
73692;BME280;61996;49.910;35.562;2024-02-15T05:53:26;99953.97;;;18.99;42.29
73692;BME280;61996;49.910;35.562;2024-02-15T05:56:29;99962.81;;;18.99;42.29
73692;BME280;61996;49.910;35.562;2024-02-15T05:59:33;99966.56;;;18.97;42.23
73692;BME280;61996;49.910;35.562;2024-02-15T06:02:36;99965.88;;;18.95;42.36
73692;BME280;61996;49.910;35.562;2024-02-15T06:05:39;99974.38;;;18.88;42.49
73692;BME280;61996;49.910;35.562;2024-02-15T06:08:45;99979.56;;;18.90;42.40
73692;BME280;61996;49.910;35.562;2024-02-15T06:11:49;99969.72;;;18.81;42.44
73692;BME280;61996;49.910;35.562;2024-02-15T06:14:57;99978.41;;;18.83;42.43
73692;BME280;61996;49.910;35.562;2024-02-15T06:18:00;99965.38;;;18.80;42.45
73692;BME280;61996;49.910;35.562;2024-02-15T06:21:05;99986.81;;;18.78;42.45
73692;BME280;61996;49.910;35.562;2024-02-15T06:24:08;99981.72;;;18.75;42.48
73692;BME280;61996;49.910;35.562;2024-02-15T06:27:12;99985.38;;;18.74;42.62
73692;BME280;61996;49.910;35.562;2024-02-15T06:30:17;99982.84;;;18.73;42.49
73692;BME280;61996;49.910;35.562;2024-02-15T06:33:37;99985.19;;;18.66;42.45
73692;BME280;61996;49.910;35.562;2024-02-15T06:36:59;99976.56;;;18.62;42.71
73692;BME280;61996;49.910;35.562;2024-02-15T06:40:19;99986.22;;;18.63;42.44
73692;BME280;61996;49.910;35.562;2024-02-15T06:43:22;99980.19;;;18.61;42.73
73692;BME280;61996;49.910;35.562;2024-02-15T06:46:26;99977.59;;;18.50;42.63
73692;BME280;61996;49.910;35.562;2024-02-15T06:49:29;99986.88;;;18.56;42.66
73692;BME280;61996;49.910;35.562;2024-02-15T06:52:32;99989.66;;;18.54;42.71
73692;BME280;61996;49.910;35.562;2024-02-15T06:55:37;99990.91;;;18.50;42.81
73692;BME280;61996;49.910;35.562;2024-02-15T06:58:41;99990.91;;;18.50;42.75
73692;BME280;61996;49.910;35.562;2024-02-15T07:01:45;99997.59;;;18.45;42.76
73692;BME280;61996;49.910;35.562;2024-02-15T07:04:48;100000.13;;;18.46;42.73
73692;BME280;61996;49.910;35.562;2024-02-15T07:07:53;100002.19;;;18.43;42.87
73692;BME280;61996;49.910;35.562;2024-02-15T07:10:58;100002.31;;;18.41;42.82
73692;BME280;61996;49.910;35.562;2024-02-15T07:14:01;99998.94;;;18.39;42.88
73692;BME280;61996;49.910;35.562;2024-02-15T07:17:07;100006.09;;;18.39;42.87
73692;BME280;61996;49.910;35.562;2024-02-15T07:20:11;99997.38;;;18.37;42.92
73692;BME280;61996;49.910;35.562;2024-02-15T07:23:18;99996.06;;;18.31;43.05
73692;BME280;61996;49.910;35.562;2024-02-15T07:26:23;99996.78;;;18.33;42.79
73692;BME280;61996;49.910;35.562;2024-02-15T07:29:27;100003.94;;;18.32;42.92
73692;BME280;61996;49.910;35.562;2024-02-15T07:32:34;100011.34;;;18.29;43.02
73692;BME280;61996;49.910;35.562;2024-02-15T07:35:37;100014.72;;;18.31;42.90
73692;BME280;61996;49.910;35.562;2024-02-15T07:38:40;100014.22;;;18.26;43.04
73692;BME280;61996;49.910;35.562;2024-02-15T07:41:43;100017.88;;;18.25;42.97
73692;BME280;61996;49.910;35.562;2024-02-15T07:44:46;100013.53;;;18.24;42.88
73692;BME280;61996;49.910;35.562;2024-02-15T07:47:50;100024.31;;;18.22;42.89
73692;BME280;61996;49.910;35.562;2024-02-15T07:50:53;100023.56;;;18.20;42.86
73692;BME280;61996;49.910;35.562;2024-02-15T07:53:56;100026.50;;;18.17;42.92
73692;BME280;61996;49.910;35.562;2024-02-15T07:56:59;100020.88;;;18.31;42.64
73692;BME280;61996;49.910;35.562;2024-02-15T08:00:02;100019.47;;;18.16;42.73
73692;BME280;61996;49.910;35.562;2024-02-15T08:03:08;100021.91;;;18.08;42.81
73692;BME280;61996;49.910;35.562;2024-02-15T08:06:11;100023.00;;;18.05;42.66
73692;BME280;61996;49.910;35.562;2024-02-15T08:09:14;100022.16;;;18.05;42.95
73692;BME280;61996;49.910;35.562;2024-02-15T08:12:19;100030.75;;;18.08;42.93
73692;BME280;61996;49.910;35.562;2024-02-15T08:15:23;100042.25;;;18.09;42.92
73692;BME280;61996;49.910;35.562;2024-02-15T08:18:30;100039.69;;;18.07;43.00
73692;BME280;61996;49.910;35.562;2024-02-15T08:21:34;100040.06;;;18.03;43.04
73692;BME280;61996;49.910;35.562;2024-02-15T08:24:37;100050.84;;;18.01;43.02
73692;BME280;61996;49.910;35.562;2024-02-15T08:27:41;100052.28;;;18.05;42.93
73692;BME280;61996;49.910;35.562;2024-02-15T08:30:44;100052.75;;;17.99;42.98
73692;BME280;61996;49.910;35.562;2024-02-15T08:33:49;100057.50;;;17.96;43.11
73692;BME280;61996;49.910;35.562;2024-02-15T08:36:52;100057.38;;;17.97;43.01
73692;BME280;61996;49.910;35.562;2024-02-15T08:39:55;100055.56;;;17.98;43.06
73692;BME280;61996;49.910;35.562;2024-02-15T08:42:58;100055.81;;;17.95;43.04
73692;BME280;61996;49.910;35.562;2024-02-15T08:46:01;100061.13;;;17.95;43.13
73692;BME280;61996;49.910;35.562;2024-02-15T08:49:05;100058.56;;;17.93;43.07
73692;BME280;61996;49.910;35.562;2024-02-15T08:52:08;100065.47;;;17.96;42.93
73692;BME280;61996;49.910;35.562;2024-02-15T08:55:11;100072.13;;;17.90;42.97
73692;BME280;61996;49.910;35.562;2024-02-15T08:58:16;100064.03;;;17.92;43.09
73692;BME280;61996;49.910;35.562;2024-02-15T09:01:19;100059.69;;;17.91;42.94
73692;BME280;61996;49.910;35.562;2024-02-15T09:04:23;100058.56;;;17.93;42.99
73692;BME280;61996;49.910;35.562;2024-02-15T09:07:27;100058.69;;;17.92;43.00
73692;BME280;61996;49.910;35.562;2024-02-15T09:10:32;100055.19;;;17.91;42.92
73692;BME280;61996;49.910;35.562;2024-02-15T09:13:35;100052.88;;;17.87;42.74
73692;BME280;61996;49.910;35.562;2024-02-15T09:16:39;100062.81;;;17.85;42.96
73692;BME280;61996;49.910;35.562;2024-02-15T09:19:43;100062.94;;;17.83;43.04
73692;BME280;61996;49.910;35.562;2024-02-15T09:22:47;100059.19;;;17.86;42.98
73692;BME280;61996;49.910;35.562;2024-02-15T09:25:50;100058.59;;;17.82;43.04
73692;BME280;61996;49.910;35.562;2024-02-15T09:28:54;100054.97;;;17.83;42.64
73692;BME280;61996;49.910;35.562;2024-02-15T09:31:57;100047.81;;;17.84;43.04
73692;BME280;61996;49.910;35.562;2024-02-15T09:35:01;100057.84;;;17.80;42.89
73692;BME280;61996;49.910;35.562;2024-02-15T09:38:09;100053.50;;;17.79;43.02
73692;BME280;61996;49.910;35.562;2024-02-15T09:41:11;100067.44;;;17.83;42.96
73692;BME280;61996;49.910;35.562;2024-02-15T09:44:15;100066.81;;;17.90;42.73
73692;BME280;61996;49.910;35.562;2024-02-15T09:47:17;100069.47;;;18.01;42.50
73692;BME280;61996;49.910;35.562;2024-02-15T09:50:22;100063.88;;;18.04;42.31
73692;BME280;61996;49.910;35.562;2024-02-15T09:53:26;100057.94;;;18.12;42.19
73692;BME280;61996;49.910;35.562;2024-02-15T09:56:30;100062.78;;;18.29;42.02
73692;BME280;61996;49.910;35.562;2024-02-15T09:59:34;100063.13;;;18.36;41.64
73692;BME280;61996;49.910;35.562;2024-02-15T10:02:38;100067.53;;;18.47;41.62
73692;BME280;61996;49.910;35.562;2024-02-15T10:05:44;100068.72;;;18.54;41.51
73692;BME280;61996;49.910;35.562;2024-02-15T10:08:47;100060.25;;;18.60;41.30
73692;BME280;61996;49.910;35.562;2024-02-15T10:11:53;100065.94;;;18.67;41.27
73692;BME280;61996;49.910;35.562;2024-02-15T10:14:57;100076.09;;;18.73;41.24
73692;BME280;61996;49.910;35.562;2024-02-15T10:18:01;100078.34;;;18.77;41.10
73692;BME280;61996;49.910;35.562;2024-02-15T10:21:06;100082.59;;;18.80;41.06
73692;BME280;61996;49.910;35.562;2024-02-15T10:24:09;100076.03;;;18.84;41.01
73692;BME280;61996;49.910;35.562;2024-02-15T10:27:12;100075.66;;;18.88;41.01
73692;BME280;61996;49.910;35.562;2024-02-15T10:30:15;100084.25;;;18.92;40.96
73692;BME280;61996;49.910;35.562;2024-02-15T10:33:19;100082.28;;;18.94;40.88
73692;BME280;61996;49.910;35.562;2024-02-15T10:36:24;100085.53;;;18.98;40.79
73692;BME280;61996;49.910;35.562;2024-02-15T10:39:27;100072.81;;;19.01;41.01
73692;BME280;61996;49.910;35.562;2024-02-15T10:42:31;100075.59;;;19.00;40.82
73692;BME280;61996;49.910;35.562;2024-02-15T10:45:36;100085.16;;;19.02;40.68
73692;BME280;61996;49.910;35.562;2024-02-15T10:48:39;100085.03;;;19.04;40.70
73692;BME280;61996;49.910;35.562;2024-02-15T10:51:48;100082.81;;;19.09;40.70
73692;BME280;61996;49.910;35.562;2024-02-15T10:54:53;100086.19;;;19.11;40.54
73692;BME280;61996;49.910;35.562;2024-02-15T10:58:00;100085.63;;;19.28;40.58
73692;BME280;61996;49.910;35.562;2024-02-15T11:01:06;100079.25;;;19.20;40.58
73692;BME280;61996;49.910;35.562;2024-02-15T11:04:12;100091.63;;;19.21;40.74
73692;BME280;61996;49.910;35.562;2024-02-15T11:07:18;100098.88;;;19.18;40.78
73692;BME280;61996;49.910;35.562;2024-02-15T11:10:26;100087.63;;;19.15;40.88
73692;BME280;61996;49.910;35.562;2024-02-15T11:13:29;100100.50;;;19.10;40.87
73692;BME280;61996;49.910;35.562;2024-02-15T11:16:41;100092.88;;;19.05;41.26
73692;BME280;61996;49.910;35.562;2024-02-15T11:19:45;100099.47;;;19.01;41.10
73692;BME280;61996;49.910;35.562;2024-02-15T11:22:55;100084.81;;;18.96;41.17
73692;BME280;61996;49.910;35.562;2024-02-15T11:25:58;100093.94;;;18.93;41.14
73692;BME280;61996;49.910;35.562;2024-02-15T11:29:02;100095.28;;;18.87;41.29
73692;BME280;61996;49.910;35.562;2024-02-15T11:32:05;100090.78;;;18.88;41.26
73692;BME280;61996;49.910;35.562;2024-02-15T11:35:08;100092.28;;;18.81;41.36
73692;BME280;61996;49.910;35.562;2024-02-15T11:38:28;100090.84;;;18.77;41.36
73692;BME280;61996;49.910;35.562;2024-02-15T11:41:31;100088.44;;;18.74;41.39
73692;BME280;61996;49.910;35.562;2024-02-15T11:44:35;100089.41;;;18.73;41.60
73692;BME280;61996;49.910;35.562;2024-02-15T11:47:39;100094.59;;;18.63;41.60
73692;BME280;61996;49.910;35.562;2024-02-15T11:50:44;100089.28;;;18.63;41.57
73692;BME280;61996;49.910;35.562;2024-02-15T11:53:59;100088.84;;;18.58;41.66
73692;BME280;61996;49.910;35.562;2024-02-15T11:57:02;100083.59;;;18.56;41.73
73692;BME280;61996;49.910;35.562;2024-02-15T12:00:12;100087.16;;;18.57;41.74
73692;BME280;61996;49.910;35.562;2024-02-15T12:03:35;100081.69;;;18.58;41.71
73692;BME280;61996;49.910;35.562;2024-02-15T12:07:07;100076.84;;;18.52;41.76
73692;BME280;61996;49.910;35.562;2024-02-15T12:10:29;100086.81;;;18.50;41.76
73692;BME280;61996;49.910;35.562;2024-02-15T12:13:50;100075.41;;;18.48;41.80
73692;BME280;61996;49.910;35.562;2024-02-15T12:17:11;100079.41;;;18.43;41.77
73692;BME280;61996;49.910;35.562;2024-02-15T12:20:32;100078.69;;;18.41;41.76
73692;BME280;61996;49.910;35.562;2024-02-15T12:23:37;100066.63;;;18.37;41.80
73692;BME280;61996;49.910;35.562;2024-02-15T12:26:44;100074.72;;;18.35;41.75
73692;BME280;61996;49.910;35.562;2024-02-15T12:29:52;100090.69;;;18.35;41.82
73692;BME280;61996;49.910;35.562;2024-02-15T12:32:55;100077.63;;;18.32;41.83
73692;BME280;61996;49.910;35.562;2024-02-15T12:36:11;100086.72;;;18.29;41.90
73692;BME280;61996;49.910;35.562;2024-02-15T12:39:14;100089.41;;;18.29;42.05
73692;BME280;61996;49.910;35.562;2024-02-15T12:42:28;100092.16;;;18.28;42.11
73692;BME280;61996;49.910;35.562;2024-02-15T12:45:31;100097.88;;;18.23;42.03
73692;BME280;61996;49.910;35.562;2024-02-15T12:48:34;100088.91;;;18.24;41.98
73692;BME280;61996;49.910;35.562;2024-02-15T12:51:37;100099.69;;;18.23;42.00
73692;BME280;61996;49.910;35.562;2024-02-15T12:54:40;100092.19;;;18.17;42.19
73692;BME280;61996;49.910;35.562;2024-02-15T12:57:46;100102.97;;;18.15;42.12
73692;BME280;61996;49.910;35.562;2024-02-15T13:00:54;100103.69;;;18.17;41.96
73692;BME280;61996;49.910;35.562;2024-02-15T13:04:00;100102.59;;;18.20;42.01
73692;BME280;61996;49.910;35.562;2024-02-15T13:07:03;100105.13;;;18.21;41.95
73692;BME280;61996;49.910;35.562;2024-02-15T13:10:08;100106.56;;;18.25;41.80
73692;BME280;61996;49.910;35.562;2024-02-15T13:13:13;100104.97;;;18.34;41.61
73692;BME280;61996;49.910;35.562;2024-02-15T13:16:17;100098.41;;;18.49;41.29
73692;BME280;61996;49.910;35.562;2024-02-15T13:19:21;100101.88;;;18.61;41.12
73692;BME280;61996;49.910;35.562;2024-02-15T13:22:24;100109.13;;;18.70;41.13
73692;BME280;61996;49.910;35.562;2024-02-15T13:25:27;100110.47;;;18.76;40.96
73692;BME280;61996;49.910;35.562;2024-02-15T13:28:32;100105.59;;;18.81;40.87
73692;BME280;61996;49.910;35.562;2024-02-15T13:31:35;100105.94;;;18.87;40.81
73692;BME280;61996;49.910;35.562;2024-02-15T13:34:38;100111.13;;;18.89;40.80
73692;BME280;61996;49.910;35.562;2024-02-15T13:37:41;100115.97;;;18.95;40.67
73692;BME280;61996;49.910;35.562;2024-02-15T13:40:51;100116.56;;;18.99;40.71
73692;BME280;61996;49.910;35.562;2024-02-15T13:43:58;100115.31;;;19.03;40.46
73692;BME280;61996;49.910;35.562;2024-02-15T13:47:01;100116.16;;;19.03;40.66
73692;BME280;61996;49.910;35.562;2024-02-15T13:50:05;100119.44;;;19.07;40.56
73692;BME280;61996;49.910;35.562;2024-02-15T13:53:09;100118.59;;;19.06;40.45
73692;BME280;61996;49.910;35.562;2024-02-15T13:56:15;100112.84;;;19.11;40.44
73692;BME280;61996;49.910;35.562;2024-02-15T13:59:20;100108.03;;;19.26;40.28
73692;BME280;61996;49.910;35.562;2024-02-15T14:05:25;100123.66;;;19.51;40.21
73692;BME280;61996;49.910;35.562;2024-02-15T14:08:30;100129.78;;;19.42;40.59
73692;BME280;61996;49.910;35.562;2024-02-15T14:11:33;100120.47;;;19.36;40.38
73692;BME280;61996;49.910;35.562;2024-02-15T14:14:36;100127.88;;;19.33;40.77
73692;BME280;61996;49.910;35.562;2024-02-15T14:17:39;100126.19;;;19.32;40.72
73692;BME280;61996;49.910;35.562;2024-02-15T14:20:43;100133.34;;;19.31;40.72
73692;BME280;61996;49.910;35.562;2024-02-15T14:23:49;100134.19;;;19.32;40.80
73692;BME280;61996;49.910;35.562;2024-02-15T14:26:52;100137.59;;;19.34;40.63
73692;BME280;61996;49.910;35.562;2024-02-15T14:29:55;100137.19;;;19.80;40.22
73692;BME280;61996;49.910;35.562;2024-02-15T14:33:15;100135.88;;;19.54;40.54
73692;BME280;61996;49.910;35.562;2024-02-15T14:36:24;100136.44;;;19.68;40.38
73692;BME280;61996;49.910;35.562;2024-02-15T14:39:28;100139.09;;;19.48;40.60
73692;BME280;61996;49.910;35.562;2024-02-15T14:42:31;100132.38;;;19.53;40.46
73692;BME280;61996;49.910;35.562;2024-02-15T14:45:35;100138.97;;;19.49;40.48
73692;BME280;61996;49.910;35.562;2024-02-15T14:48:39;100142.31;;;19.62;40.66
73692;BME280;61996;49.910;35.562;2024-02-15T14:51:44;100148.13;;;19.56;40.28
73692;BME280;61996;49.910;35.562;2024-02-15T14:54:47;100147.38;;;19.65;40.23
73692;BME280;61996;49.910;35.562;2024-02-15T14:57:50;100144.38;;;19.59;40.24
73692;BME280;61996;49.910;35.562;2024-02-15T15:00:53;100149.56;;;19.60;40.28
73692;BME280;61996;49.910;35.562;2024-02-15T15:03:59;100156.06;;;19.67;40.18
73692;BME280;61996;49.910;35.562;2024-02-15T15:07:08;100156.41;;;19.74;40.28
73692;BME280;61996;49.910;35.562;2024-02-15T15:10:28;100160.56;;;19.67;40.35
73692;BME280;61996;49.910;35.562;2024-02-15T15:13:49;100158.09;;;19.54;40.19
73692;BME280;61996;49.910;35.562;2024-02-15T15:16:53;100165.13;;;19.55;40.29
73692;BME280;61996;49.910;35.562;2024-02-15T15:19:57;100160.44;;;19.48;40.21
73692;BME280;61996;49.910;35.562;2024-02-15T15:23:01;100176.81;;;19.43;40.31
73692;BME280;61996;49.910;35.562;2024-02-15T15:26:06;100178.66;;;19.42;40.47
73692;BME280;61996;49.910;35.562;2024-02-15T15:29:12;100171.72;;;19.40;40.64
73692;BME280;61996;49.910;35.562;2024-02-15T15:32:16;100172.84;;;19.37;40.54
73692;BME280;61996;49.910;35.562;2024-02-15T15:35:18;100170.69;;;19.31;40.57
73692;BME280;61996;49.910;35.562;2024-02-15T15:38:25;100180.09;;;19.14;40.84
73692;BME280;61996;49.910;35.562;2024-02-15T15:41:29;100183.50;;;19.05;41.17
73692;BME280;61996;49.910;35.562;2024-02-15T15:44:31;100176.06;;;18.99;41.15
73692;BME280;61996;49.910;35.562;2024-02-15T15:47:35;100184.69;;;18.92;41.17
73692;BME280;61996;49.910;35.562;2024-02-15T15:50:38;100193.75;;;18.89;41.37
73692;BME280;61996;49.910;35.562;2024-02-15T15:53:45;100199.94;;;18.89;41.31
73692;BME280;61996;49.910;35.562;2024-02-15T15:56:51;100210.47;;;18.91;41.17
73692;BME280;61996;49.910;35.562;2024-02-15T15:59:55;100211.56;;;18.88;41.19
73692;BME280;61996;49.910;35.562;2024-02-15T16:03:00;100206.84;;;18.92;41.31